Time;durP1;ratioP1;P1;durP2;ratioP2;P2;SDS_P1;SDS_P2;PMS_P1;PMS_P2;Temp;Humidity;BMP_temperature;BMP_pressure;BME280_temperature;BME280_humidity;BME280_pressure;Samples;Min_cycle;Max_cycle;Signal;HPM_P1;HPM_P2
2022/07/11 00:01:49;;;;;;;9.05;4.78;;;;;;;16.41;100.00;68589.88;5071364;28;20093;-76
2022/07/11 00:04:15;;;;;;;7.40;4.20;;;;;;;16.42;100.00;68591.00;5060454;28;20040;-77
2022/07/11 00:06:40;;;;;;;8.82;4.50;;;;;;;16.42;100.00;68593.69;5068156;28;20044;-76
2022/07/11 00:09:06;;;;;;;11.18;4.72;;;;;;;16.42;100.00;68591.00;5057744;28;20033;-76
2022/07/11 00:11:31;;;;;;;11.77;5.13;;;;;;;;;;5068431;28;20049;-75
2022/07/11 00:13:57;;;;;;;8.88;4.60;;;;;;;16.47;100.00;68598.84;5061608;28;20074;-76
2022/07/11 00:16:22;;;;;;;9.48;4.82;;;;;;;16.40;100.00;68590.84;5061202;28;20475;-76
2022/07/11 00:18:47;;;;;;;11.00;5.53;;;;;;;16.33;100.00;68588.81;5066428;28;20060;-78
2022/07/11 00:21:13;;;;;;;9.27;5.20;;;;;;;16.33;100.00;68583.44;5065381;28;20043;-77
2022/07/11 00:23:38;;;;;;;8.98;5.07;;;;;;;16.33;100.00;68580.75;5056894;28;20122;-76
2022/07/11 00:26:04;;;;;;;8.73;4.68;;;;;;;;;;5052923;28;20040;-78
2022/07/11 00:28:30;;;;;;;10.93;4.78;;;;;;;16.30;100.00;68577.34;5066901;28;20047;-79
2022/07/11 00:30:55;;;;;;;11.35;4.65;;;;;;;16.31;100.00;68578.47;5066607;28;20115;-78
2022/07/11 00:33:21;;;;;;;9.50;5.43;;;;;;;16.31;100.00;68580.59;5078868;28;20044;-76
2022/07/11 00:35:47;;;;;;;10.88;4.60;;;;;;;16.30;100.00;68577.34;5082114;28;20051;-76
2022/07/11 00:38:12;;;;;;;12.43;4.53;;;;;;;16.29;100.00;68584.25;5080913;28;20039;-79
2022/07/11 00:40:38;;;;;;;11.63;5.40;;;;;;;16.30;100.00;68579.44;5068860;28;20510;-82
2022/07/11 00:43:04;;;;;;;10.82;4.85;;;;;;;16.32;100.00;68581.75;5070060;28;20047;-75
2022/07/11 00:45:29;;;;;;;8.10;4.70;;;;;;;16.30;100.00;68579.44;5069029;28;20086;-77
2022/07/11 00:47:56;;;;;;;9.05;4.40;;;;;;;16.28;100.00;68572.34;5069622;28;20136;-76
2022/07/11 00:50:22;;;;;;;10.32;4.93;;;;;;;16.28;100.00;68577.16;5068627;28;20520;-77
2022/07/11 00:52:49;;;;;;;8.52;4.60;;;;;;;16.27;100.00;68576.59;5073486;28;20044;-76
2022/07/11 00:55:15;;;;;;;13.95;4.85;;;;;;;16.24;100.00;68573.75;5099519;28;20562;-79
2022/07/11 00:57:41;;;;;;;9.95;5.18;;;;;;;16.28;100.00;68577.16;5087861;28;20291;-76
2022/07/11 01:00:08;;;;;;;12.02;6.13;;;;;;;16.22;100.00;68570.91;5083319;28;20515;-76
2022/07/11 01:02:34;;;;;;;8.73;4.90;;;;;;;16.21;100.00;68564.38;5068926;28;20489;-77
2022/07/11 01:04:59;;;;;;;8.80;5.40;;;;;;;16.18;100.00;68571.72;5066172;28;20067;-76
2022/07/11 01:07:25;;;;;;;9.77;5.05;;;;;;;;;;5063386;28;20041;-78
2022/07/11 01:09:50;;;;;;;10.55;4.60;;;;;;;16.14;100.00;68561.78;5069228;28;20045;-76
2022/07/11 01:12:17;;;;;;;9.45;5.13;;;;;;;16.14;100.00;68562.38;5064189;28;20040;-76
2022/07/11 01:14:56;;;;;;;8.93;4.90;;;;;;;16.13;100.00;68561.22;5065046;28;20755;-76
2022/07/11 01:17:21;;;;;;;9.60;4.88;;;;;;;;;;5059314;28;20052;-78
2022/07/11 01:19:47;;;;;;;8.63;4.70;;;;;;;16.11;100.00;68558.34;5069293;28;20105;-77
2022/07/11 01:22:20;;;;;;;10.30;4.47;;;;;;;16.10;100.00;68555.09;5066377;28;20044;-76
2022/07/11 01:24:45;;;;;;;9.57;4.90;;;;;;;16.09;100.00;68556.09;5065227;28;20146;-76
2022/07/11 01:27:12;;;;;;;6.50;4.53;;;;;;;16.06;100.00;68552.66;5067465;28;20123;-76
2022/07/11 01:29:38;;;;;;;6.75;3.58;;;;;;;;;;5066931;28;20105;-75
2022/07/11 01:32:03;;;;;;;7.90;3.90;;;;;;;;;;5061542;28;20041;-77
2022/07/11 01:34:29;;;;;;;9.38;3.60;;;;;;;16.06;100.00;68553.25;5080148;28;20032;-76
2022/07/11 01:36:54;;;;;;;5.68;3.33;;;;;;;16.01;100.00;68548.09;5074796;28;20127;-78
2022/07/11 01:39:19;;;;;;;10.27;3.75;;;;;;;;;;5072522;28;20040;-76
2022/07/11 01:41:44;;;;;;;6.13;3.53;;;;;;;;;;5064892;28;20045;-76
2022/07/11 01:44:10;;;;;;;3.80;2.53;;;;;;;15.99;100.00;68551.19;5067371;28;20048;-78
2022/07/11 01:46:35;;;;;;;6.35;2.97;;;;;;;15.95;100.00;68540.69;5066251;28;20055;-79
2022/07/11 01:49:01;;;;;;;7.22;2.90;;;;;;;16.00;100.00;68546.97;5060828;28;20111;-78
2022/07/11 01:51:28;;;;;;;5.38;2.80;;;;;;;15.97;100.00;68543.56;5071204;28;20033;-76
2022/07/11 01:53:55;;;;;;;4.55;2.90;;;;;;;;;;5067390;28;20045;-76
2022/07/11 01:56:21;;;;;;;6.90;3.20;;;;;;;15.97;100.00;68542.97;5058891;28;20514;-78
2022/07/11 01:58:47;;;;;;;7.65;3.20;;;;;;;15.95;100.00;68546.63;5081002;28;20055;-77
2022/07/11 02:01:12;;;;;;;5.15;2.90;;;;;;;15.94;100.00;68539.53;5066782;28;20036;-76
2022/07/11 02:03:38;;;;;;;3.95;2.80;;;;;;;15.95;100.00;68538.59;5066493;28;20127;-76
2022/07/11 02:06:04;;;;;;;5.90;3.20;;;;;;;15.97;100.00;68542.97;5085151;28;20085;-76
2022/07/11 02:08:29;;;;;;;5.72;3.40;;;;;;;;;;5068127;28;20048;-76
2022/07/11 02:10:55;;;;;;;4.93;2.70;;;;;;;15.90;100.00;68532.88;5066893;28;20044;-76
2022/07/11 02:13:22;;;;;;;7.32;3.20;;;;;;;15.86;100.00;68531.00;5072915;28;20490;-76
2022/07/11 02:15:50;;;;;;;7.38;2.92;;;;;;;15.87;100.00;68537.50;5085372;28;20036;-76
2022/07/11 02:18:16;;;;;;;4.63;2.72;;;;;;;;;;5085573;28;20066;-76
2022/07/11 02:20:42;;;;;;;7.90;3.42;;;;;;;15.86;100.00;68535.81;5086046;28;20554;-76
2022/07/11 02:23:08;;;;;;;4.40;2.90;;;;;;;15.84;100.00;68526.03;5087442;28;20442;-76
2022/07/11 02:25:39;;;;;;;4.95;2.80;;;;;;;15.85;100.00;68529.84;5099429;28;20089;-76
2022/07/11 02:28:08;;;;;;;4.50;3.15;;;;;;;15.84;100.00;68528.72;5086099;28;20048;-76
2022/07/11 02:30:34;;;;;;;;;;;;;;;15.85;100.00;68529.28;5067600;28;20050;-76
2022/07/11 02:33:00;;;;;;;5.68;2.80;;;;;;;;;;5078409;28;19922;-76
2022/07/11 02:35:25;;;;;;;4.88;3.30;;;;;;;15.78;100.00;68521.91;5066553;28;20045;-76
2022/07/11 02:37:51;;;;;;;4.68;3.28;;;;;;;15.82;100.00;68523.75;5073067;28;20041;-76
2022/07/11 02:40:16;;;;;;;7.45;3.47;;;;;;;15.80;100.00;68524.19;5066428;28;20048;-76
2022/07/11 02:42:42;;;;;;;6.28;2.92;;;;;;;15.84;100.00;68528.16;5065750;28;20132;-76
2022/07/11 02:45:08;;;;;;;5.90;3.35;;;;;;;15.78;100.00;68521.91;5084645;28;20036;-76
2022/07/11 02:47:34;;;;;;;7.80;2.88;;;;;;;;;;5087344;28;20058;-76
2022/07/11 02:49:59;;;;;;;4.88;3.08;;;;;;;15.76;100.00;68520.19;5082128;28;20036;-76
2022/07/11 02:52:25;;;;;;;8.00;3.08;;;;;;;15.76;100.00;68524.97;5065734;28;20044;-76
2022/07/11 02:54:50;;;;;;;7.55;3.35;;;;;;;15.75;100.00;68524.41;5069060;28;20570;-76
2022/07/11 02:57:15;;;;;;;8.23;2.42;;;;;;;15.74;100.00;68517.34;5082818;28;20142;-76
2022/07/11 02:59:41;;;;;;;6.38;2.67;;;;;;;15.75;100.00;68518.47;5082080;28;20204;-76
2022/07/11 03:02:06;;;;;;;4.32;2.72;;;;;;;15.73;100.00;68516.19;5072572;28;20036;-76
2022/07/11 03:04:32;;;;;;;4.55;2.72;;;;;;;15.73;100.00;68516.19;5085787;28;20048;-76
2022/07/11 03:06:58;;;;;;;5.93;2.90;;;;;;;;;;5085317;28;20074;-76
2022/07/11 03:09:23;;;;;;;4.03;2.53;;;;;;;15.70;100.00;68513.34;5086303;28;20458;-76
2022/07/11 03:11:50;;;;;;;7.32;2.80;;;;;;;15.72;100.00;68515.06;5082357;28;20044;-76
2022/07/11 03:14:16;;;;;;;5.45;3.10;;;;;;;15.70;100.00;68512.78;5082739;28;20036;-76
2022/07/11 03:16:41;;;;;;;5.03;3.00;;;;;;;15.71;100.00;68514.50;5085859;28;20393;-76
2022/07/11 03:19:06;;;;;;;3.97;2.75;;;;;;;15.68;100.00;68507.81;5086780;28;20112;-76
2022/07/11 03:21:32;;;;;;;6.15;3.10;;;;;;;15.64;100.00;68506.50;5085628;28;20048;-76
2022/07/11 03:23:57;;;;;;;6.13;3.03;;;;;;;15.66;100.00;68508.22;5087646;28;20036;-76
2022/07/11 03:26:22;;;;;;;4.90;2.90;;;;;;;15.64;100.00;68506.50;5084639;28;20048;-76
2022/07/11 03:28:48;;;;;;;5.80;3.28;;;;;;;;;;5066319;28;20053;-76
2022/07/11 03:31:13;;;;;;;5.47;3.07;;;;;;;15.58;100.00;68496.97;5055577;28;20035;-76
2022/07/11 03:33:38;;;;;;;4.43;3.30;;;;;;;15.55;100.00;68496.81;5057563;28;20282;-76
2022/07/11 03:36:04;;;;;;;4.90;3.20;;;;;;;15.58;100.00;68500.22;5072019;28;20036;-76
2022/07/11 03:38:30;;;;;;;6.00;3.28;;;;;;;15.61;100.00;68502.50;5087298;28;20123;-76
2022/07/11 03:40:56;;;;;;;4.22;3.28;;;;;;;15.61;100.00;68507.88;5086999;28;20067;-76
2022/07/11 03:43:22;;;;;;;4.50;3.47;;;;;;;15.56;100.00;68497.97;5075961;28;20101;-76
2022/07/11 03:45:47;;;;;;;6.43;4.20;;;;;;;15.52;100.00;68498.75;5066942;28;20043;-76
2022/07/11 03:48:13;;;;;;;7.13;3.13;;;;;;;;;;5063547;28;20049;-76
2022/07/11 03:50:38;;;;;;;3.85;3.10;;;;;;;15.57;100.00;68498.53;5064016;28;20123;-76
2022/07/11 03:53:04;;;;;;;5.25;2.72;;;;;;;15.54;100.00;68490.31;5064352;28;20071;-76
2022/07/11 03:55:29;;;;;;;4.65;3.15;;;;;;;;;;5069462;28;20043;-76
2022/07/11 03:57:55;;;;;;;4.32;3.38;;;;;;;;;;5075149;28;20048;-76
2022/07/11 04:00:21;;;;;;;4.72;2.90;;;;;;;15.55;100.00;68496.81;5076082;28;20049;-76
2022/07/11 04:02:50;;;;;;;6.80;3.63;;;;;;;15.51;100.00;68491.69;5069085;28;20071;-76
2022/07/11 04:05:15;;;;;;;7.85;3.35;;;;;;;15.53;100.00;68494.53;5073953;28;20043;-76
2022/07/11 04:07:42;;;;;;;8.45;3.75;;;;;;;15.51;100.00;68497.06;5084637;28;20048;-76
2022/07/11 04:10:07;;;;;;;5.82;3.60;;;;;;;;;;5085383;28;20047;-76
2022/07/11 04:12:32;;;;;;;8.68;3.80;;;;;;;15.43;100.00;68482.56;5087345;28;20044;-76
2022/07/11 04:14:58;;;;;;;6.22;3.45;;;;;;;;;;5100658;28;20040;-76
2022/07/11 04:17:23;;;;;;;7.68;3.40;;;;;;;15.45;100.00;68490.19;5087466;28;20127;-76
2022/07/11 04:19:48;;;;;;;5.40;3.92;;;;;;;15.45;100.00;68485.41;5089869;28;20040;-76
2022/07/11 04:22:14;;;;;;;6.55;4.00;;;;;;;;;;5088286;28;20044;-76
2022/07/11 04:24:39;;;;;;;5.75;3.72;;;;;;;15.49;100.00;68495.34;5090653;28;20138;-76
2022/07/11 04:27:05;;;;;;;5.90;3.80;;;;;;;15.55;100.00;68496.25;5085312;28;20103;-76
2022/07/11 04:29:30;;;;;;;8.10;3.38;;;;;;;;;;5084538;28;20044;-76
2022/07/11 04:31:55;;;;;;;5.57;3.50;;;;;;;15.52;100.00;68498.75;5079721;28;20040;-76
2022/07/11 04:34:21;;;;;;;7.40;4.45;;;;;;;15.46;100.00;68486.56;5086589;22;20064;-79
2022/07/11 04:36:46;;;;;;;6.93;3.90;;;;;;;15.45;100.00;68490.19;5052380;28;20037;-78
2022/07/11 04:39:12;;;;;;;6.47;4.32;;;;;;;15.48;100.00;68482.91;5054859;28;20040;-80
2022/07/11 04:41:37;;;;;;;6.88;4.32;;;;;;;15.43;100.00;68482.56;5046929;28;20502;-80
2022/07/11 04:44:03;;;;;;;6.18;4.60;;;;;;;15.44;100.00;68481.59;5060351;28;20474;-79
2022/07/11 04:46:29;;;;;;;7.15;4.03;;;;;;;;;;5048771;28;20127;-79
2022/07/11 04:48:55;;;;;;;7.88;4.82;;;;;;;15.45;100.00;68490.19;5079766;28;20477;-76
2022/07/11 04:51:21;;;;;;;8.32;4.57;;;;;;;15.44;100.00;68484.28;5071165;28;20036;-76
2022/07/11 04:53:46;;;;;;;7.32;4.55;;;;;;;;;;5072921;28;20044;-78
2022/07/11 04:56:12;;;;;;;8.35;4.55;;;;;;;15.44;100.00;68489.63;5074806;28;20040;-80
2022/07/11 04:58:38;;;;;;;9.23;4.90;;;;;;;15.46;100.00;68486.56;5071821;28;20070;-77
2022/07/11 05:01:03;;;;;;;7.70;4.90;;;;;;;;;;5071909;28;20048;-78
2022/07/11 05:03:29;;;;;;;7.20;4.32;;;;;;;15.45;100.00;68482.75;5071236;28;20106;-80
2022/07/11 05:05:55;;;;;;;8.88;4.63;;;;;;;15.47;100.00;68487.69;5051692;28;20049;-80
2022/07/11 05:08:21;;;;;;;10.25;4.57;;;;;;;15.52;100.00;68490.69;5072013;28;20049;-78
2022/07/11 05:10:47;;;;;;;6.28;4.55;;;;;;;15.51;100.00;68489.00;5071288;28;20041;-78
2022/07/11 05:13:13;;;;;;;7.10;4.78;;;;;;;15.46;100.00;68481.19;5072017;28;20444;-78
2022/07/11 05:15:39;;;;;;;6.20;4.82;;;;;;;;;;5063974;28;20048;-80
2022/07/11 05:18:04;;;;;;;10.20;5.05;;;;;;;;;;5064718;28;20049;-78
2022/07/11 05:20:30;;;;;;;7.47;4.40;;;;;;;15.43;100.00;68480.47;5071470;28;20124;-78
2022/07/11 05:22:56;;;;;;;7.15;5.10;;;;;;;15.38;100.00;68474.75;5078783;28;20112;-79
2022/07/11 05:25:22;;;;;;;9.20;5.32;;;;;;;15.38;100.00;68474.19;5072973;28;20032;-81
2022/07/11 05:27:47;;;;;;;9.07;5.18;;;;;;;;;;5062924;28;20128;-80
2022/07/11 05:30:12;;;;;;;9.27;5.25;;;;;;;15.32;100.00;68471.16;5052615;28;20067;-78
2022/07/11 05:32:38;;;;;;;7.35;4.22;;;;;;;;;;5072414;28;20155;-78
2022/07/11 05:35:04;;;;;;;10.13;5.13;;;;;;;15.30;100.00;68468.88;5074287;28;20064;-79
2022/07/11 05:37:30;;;;;;;6.78;4.45;;;;;;;15.27;100.00;68464.91;5070174;28;20063;-78
2022/07/11 05:39:55;;;;;;;6.78;5.07;;;;;;;;;;5057695;28;20156;-78
2022/07/11 05:42:21;;;;;;;9.73;5.30;;;;;;;;;;5075317;28;20040;-78
2022/07/11 05:44:46;;;;;;;6.30;4.93;;;;;;;15.20;100.00;68456.94;5090537;28;20043;-78
2022/07/11 05:47:11;;;;;;;8.73;5.13;;;;;;;;;;5074949;28;20447;-76
2022/07/11 05:49:37;;;;;;;6.70;4.95;;;;;;;;;;5067101;28;20094;-78
2022/07/11 05:52:02;;;;;;;8.48;4.90;;;;;;;15.20;100.00;68457.50;5071263;28;20398;-78
2022/07/11 05:54:28;;;;;;;6.18;4.80;;;;;;;15.21;100.00;68458.06;5054054;28;20086;-78
2022/07/11 05:56:54;;;;;;;7.35;4.97;;;;;;;15.20;100.00;68456.94;5072056;28;20075;-79
2022/07/11 05:59:20;;;;;;;8.35;5.15;;;;;;;15.12;100.00;68453.75;5066532;28;20036;-77
2022/07/11 06:01:46;;;;;;;7.15;5.13;;;;;;;;;;5068345;28;20033;-78
2022/07/11 06:04:12;;;;;;;8.43;5.35;;;;;;;;;;5062259;28;20049;-80
2022/07/11 06:06:37;;;;;;;8.45;5.15;;;;;;;15.26;100.00;68463.78;5050473;28;20703;-78
2022/07/11 06:09:03;;;;;;;6.90;4.90;;;;;;;15.17;100.00;68454.09;5050262;28;20119;-78
2022/07/11 06:11:28;;;;;;;8.38;5.13;;;;;;;;;;5051162;28;20122;-78
2022/07/11 06:13:53;;;;;;;9.00;4.57;;;;;;;15.28;100.00;68466.06;5068816;28;20051;-78
2022/07/11 06:16:19;;;;;;;8.57;4.75;;;;;;;15.26;100.00;68461.09;5049579;28;20122;-78
2022/07/11 06:18:45;;;;;;;6.50;4.68;;;;;;;15.34;100.00;68470.22;5068158;28;20048;-80
2022/07/11 06:21:11;;;;;;;7.15;4.22;;;;;;;;;;5067858;28;20040;-77
2022/07/11 06:23:36;;;;;;;7.53;4.38;;;;;;;;;;5069291;28;20409;-76
2022/07/11 06:26:01;;;;;;;8.57;4.32;;;;;;;;;;5080535;28;20050;-78
2022/07/11 06:28:27;;;;;;;7.40;4.13;;;;;;;15.46;100.00;68483.88;5058069;28;20133;-77
2022/07/11 06:30:52;;;;;;;6.70;3.90;;;;;;;;;;5064155;28;20108;-79
2022/07/11 06:33:19;;;;;;;6.00;3.88;;;;;;;15.48;100.00;68494.19;5067639;28;20161;-79
2022/07/11 06:35:45;;;;;;;5.90;4.18;;;;;;;15.47;100.00;68493.06;5064419;28;20045;-79
2022/07/11 06:38:15;;;;;;;6.97;4.22;;;;;;;15.55;100.00;68496.25;5065752;28;20058;-79
2022/07/11 06:40:41;;;;;;;4.88;3.80;;;;;;;15.49;100.00;68495.34;5048887;28;20471;-78
2022/07/11 06:43:07;;;;;;;7.32;4.22;;;;;;;15.49;100.00;68489.97;5067886;28;20040;-80
2022/07/11 06:45:33;;;;;;;7.65;4.25;;;;;;;15.54;100.00;68495.09;5066528;28;20045;-78
2022/07/11 06:47:58;;;;;;;6.80;4.13;;;;;;;;;;5068708;28;20117;-77
2022/07/11 06:50:24;;;;;;;6.57;3.60;;;;;;;15.61;100.00;68502.50;5067950;28;20040;-78
2022/07/11 06:52:49;;;;;;;5.50;3.47;;;;;;;15.71;100.00;68513.94;5059763;28;20048;-79
2022/07/11 06:55:14;;;;;;;4.93;3.42;;;;;;;;;;5064951;28;20488;-78
2022/07/11 06:57:40;;;;;;;5.40;3.58;;;;;;;15.74;100.00;68517.34;5065722;28;20052;-78
2022/07/11 07:00:07;;;;;;;6.43;3.20;;;;;;;15.81;100.00;68530.13;5067955;28;20730;-80
2022/07/11 07:02:33;;;;;;;5.32;3.47;;;;;;;15.79;100.00;68520.94;5065749;28;20524;-78
2022/07/11 07:04:58;;;;;;;6.15;3.92;;;;;;;;;;5063586;28;20157;-77
2022/07/11 07:07:25;;;;;;;6.55;4.07;;;;;;;15.70;100.00;68518.16;5067760;28;20495;-79
2022/07/11 07:09:51;;;;;;;5.82;3.75;;;;;;;;;;5068728;28;20295;-77
2022/07/11 07:12:16;;;;;;;5.60;4.00;;;;;;;15.73;100.00;68516.19;5066403;28;20051;-78
2022/07/11 07:14:42;;;;;;;4.60;2.90;;;;;;;;;;5059562;28;20195;-77
2022/07/11 07:17:07;;;;;;;5.80;3.58;;;;;;;15.96;100.00;68541.84;5067635;28;20048;-76
2022/07/11 07:19:32;;;;;;;5.95;3.20;;;;;;;16.07;100.00;68553.81;5063265;28;20062;-79
2022/07/11 07:21:58;;;;;;;5.22;3.00;;;;;;;16.16;100.00;68561.38;5067241;28;20032;-79
2022/07/11 07:24:23;;;;;;;4.35;2.80;;;;;;;;;;5067585;28;20032;-78
2022/07/11 07:26:49;;;;;;;4.57;2.40;;;;;;;;;;5073217;28;20048;-79
2022/07/11 07:29:14;;;;;;;3.55;2.20;;;;;;;16.08;100.00;68554.94;5067696;28;20044;-79
2022/07/11 07:31:40;;;;;;;3.35;2.20;;;;;;;16.13;100.00;68566.00;5061998;28;20153;-77
2022/07/11 07:34:05;;;;;;;3.03;1.67;;;;;;;16.13;100.00;68566.56;5055332;28;20056;-78
2022/07/11 07:36:31;;;;;;;4.18;2.45;;;;;;;16.10;100.00;68554.53;5067533;28;20049;-79
2022/07/11 07:38:56;;;;;;;2.95;1.67;;;;;;;16.13;100.00;68558.53;5069734;28;20047;-78
2022/07/11 07:41:21;;;;;;;3.45;2.10;;;;;;;16.16;100.00;68564.06;5067528;28;20036;-79
2022/07/11 07:43:48;;;;;;;2.22;1.70;;;;;;;16.27;100.00;68573.91;5065499;28;20056;-77
2022/07/11 07:46:14;;;;;;;4.93;1.80;;;;;;;16.33;100.00;68588.25;5065677;28;20571;-78
2022/07/11 07:48:40;;;;;;;3.10;1.30;;;;;;;16.42;100.00;68593.69;5065970;28;20040;-77
2022/07/11 07:51:06;;;;;;;3.17;1.52;;;;;;;16.47;100.00;68604.78;5059158;28;20037;-77
2022/07/11 07:53:32;;;;;;;3.10;1.48;;;;;;;16.51;100.00;68602.81;5066268;28;20060;-76
2022/07/11 07:55:57;;;;;;;1.85;1.20;;;;;;;16.58;100.00;68611.38;5062096;28;20083;-77
2022/07/11 07:58:23;;;;;;;1.90;1.20;;;;;;;;;;5060840;28;20486;-78
2022/07/11 08:03:32;;;;;;;4.13;1.40;;;;;;;16.86;100.00;68642.75;5062863;28;20052;-77
2022/07/11 08:05:57;;;;;;;3.03;1.00;;;;;;;16.94;100.00;68650.72;5061067;28;20480;-77
2022/07/11 08:08:23;;;;;;;1.50;1.05;;;;;;;17.04;100.00;68660.03;5062982;28;20067;-78
2022/07/11 08:10:48;;;;;;;1.83;1.00;;;;;;;16.92;100.00;68649.59;5059828;28;20059;-78
2022/07/11 08:13:14;;;;;;;1.63;0.73;;;;;;;16.97;100.00;68648.78;5059134;28;20028;-78
2022/07/11 08:15:39;;;;;;;1.40;0.73;;;;;;;16.97;100.00;68646.09;5063616;28;20044;-79
2022/07/11 08:18:04;;;;;;;1.02;0.60;;;;;;;17.03;100.00;68661.56;5061581;28;20029;-78
2022/07/11 08:20:30;;;;;;;1.67;0.95;;;;;;;16.97;100.00;68654.16;5057324;28;20072;-80
2022/07/11 08:23:03;;;;;;;2.00;0.82;;;;;;;17.07;100.00;68666.13;5063708;28;20036;-79
2022/07/11 08:25:32;;;;;;;1.67;0.70;;;;;;;17.15;100.00;68669.31;5048448;28;20033;-77
2022/07/11 08:27:57;;;;;;;1.37;0.87;;;;;;;17.08;100.00;68664.00;5066603;28;20048;-78
2022/07/11 08:30:23;;;;;;;1.05;0.75;;;;;;;17.02;100.00;68657.16;5061739;28;20036;-78
2022/07/11 08:32:48;;;;;;;1.05;0.68;;;;;;;17.16;100.00;68673.13;5063791;28;20513;-79
2022/07/11 08:35:17;;;;;;;1.75;1.08;;;;;;;17.09;100.00;68667.84;5064685;28;20040;-77
2022/07/11 08:37:43;;;;;;;0.82;0.63;;;;;;;16.97;100.00;68652.03;5063297;28;20063;-80
2022/07/11 08:40:09;;;;;;;1.58;0.80;;;;;;;16.94;100.00;68645.91;5065869;28;20036;-79
2022/07/11 08:42:41;;;;;;;2.17;0.77;;;;;;;;;;5061595;28;20029;-79
2022/07/11 08:45:10;;;;;;;1.38;0.80;;;;;;;;;;5063562;28;20090;-78
2022/07/11 08:47:35;;;;;;;3.25;0.68;;;;;;;16.84;100.00;68640.47;5063908;28;20079;-78
2022/07/11 08:50:01;;;;;;;1.63;0.60;;;;;;;16.86;100.00;68642.16;5070068;28;20495;-80
2022/07/11 08:52:28;;;;;;;1.25;0.75;;;;;;;16.83;100.00;68639.34;5068936;28;20044;-78
2022/07/11 08:54:53;;;;;;;0.88;0.50;;;;;;;;;;5068390;28;20173;-79
2022/07/11 08:57:19;;;;;;;1.42;0.65;;;;;;;16.88;100.00;68645.03;5067196;28;20127;-76
2022/07/11 08:59:46;;;;;;;1.27;0.40;;;;;;;;;;5067638;28;20397;-77
2022/07/11 09:02:12;;;;;;;1.95;0.63;;;;;;;17.10;100.00;68669.56;5056509;28;20489;-77
2022/07/11 09:04:38;;;;;;;1.10;0.50;;;;;;;17.16;100.00;68675.25;5059770;28;20052;-79
2022/07/11 09:07:03;;;;;;;1.38;0.70;;;;;;;17.12;100.00;68671.28;5064771;28;20115;-78
2022/07/11 09:09:29;;;;;;;1.63;0.60;;;;;;;17.28;100.00;68694.88;5042078;28;20037;-78
2022/07/11 09:11:56;;;;;;;1.60;0.60;;;;;;;17.34;100.00;68696.34;5055494;28;20458;-77
2022/07/11 09:14:22;;;;;;;0.95;0.50;;;;;;;;;;5062038;28;20036;-79
2022/07/11 09:16:56;;;;;;;1.80;0.63;;;;;;;17.59;100.00;68723.75;5068541;28;20055;-79
2022/07/11 09:19:25;;;;;;;2.72;0.68;;;;;;;;;;5069312;28;20052;-78
2022/07/11 09:27:52;;;;;;;0.80;0.50;;;;;;;18.15;96.71;68785.97;5049539;28;20047;-78
2022/07/11 09:30:32;;;;;;;1.23;0.43;;;;;;;18.26;95.23;68798.53;5066842;28;20040;-78
2022/07/11 09:33:01;;;;;;;1.40;0.40;;;;;;;18.46;93.09;68818.09;5065512;28;20036;-78
2022/07/11 09:35:30;;;;;;;1.08;0.47;;;;;;;18.32;93.07;68804.81;5066823;28;20044;-78
2022/07/11 09:37:56;;;;;;;0.70;0.40;;;;;;;;;;5065966;28;20056;-78
2022/07/11 09:40:22;;;;;;;3.13;0.52;;;;;;;18.17;94.73;68786.13;5065309;28;20068;-78
2022/07/11 09:42:53;;;;;;;0.90;0.50;;;;;;;18.17;93.68;68785.56;5068865;28;20175;-78
2022/07/11 09:45:20;;;;;;;0.60;0.28;;;;;;;18.18;93.70;68789.97;5063753;28;20037;-78
2022/07/11 09:47:48;;;;;;;1.17;0.40;;;;;;;18.32;93.70;68804.81;5061056;28;20033;-78
2022/07/11 09:50:18;;;;;;;0.98;0.35;;;;;;;18.33;90.56;68805.97;5071630;28;20036;-79
2022/07/11 09:52:58;;;;;;;0.70;0.30;;;;;;;18.32;92.16;68805.38;5071921;28;20032;-78
2022/07/11 09:55:25;;;;;;;0.60;0.38;;;;;;;18.27;91.86;68800.25;5073143;28;20060;-79
2022/07/11 09:57:50;;;;;;;1.60;0.65;;;;;;;18.12;92.22;68783.09;5074941;28;20420;-79
2022/07/11 10:00:16;;;;;;;1.73;0.43;;;;;;;18.06;92.19;68781.66;5073811;28;20729;-78
2022/07/11 10:02:41;;;;;;;0.80;0.60;;;;;;;;;;5068573;28;20055;-78
2022/07/11 10:05:08;;;;;;;0.35;0.30;;;;;;;18.09;93.14;68785.06;5053404;28;20045;-78
2022/07/11 10:07:33;;;;;;;0.85;0.57;;;;;;;18.14;92.12;68785.41;5056797;28;20036;-79
2022/07/11 10:10:00;;;;;;;1.23;0.50;;;;;;;18.10;92.27;68780.84;5063117;28;20532;-78
2022/07/11 10:12:27;;;;;;;1.27;0.50;;;;;;;18.06;92.39;68770.88;5070221;28;20066;-79
2022/07/11 10:14:54;;;;;;;1.75;0.60;;;;;;;18.00;92.73;68766.72;5058206;28;20085;-78
2022/07/11 10:17:52;;;;;;;0.98;0.57;;;;;;;18.00;93.36;68769.41;5049971;28;20048;-78
2022/07/11 10:20:27;;;;;;;0.95;0.65;;;;;;;18.03;93.72;68772.84;4994667;28;20053;-79
2022/07/11 10:23:15;;;;;;;1.33;0.50;;;;;;;18.00;93.93;68769.41;4991601;28;20042;-79
2022/07/11 10:25:51;;;;;;;1.85;0.93;;;;;;;18.00;93.90;68764.03;4987784;28;20117;-79
2022/07/11 10:28:48;;;;;;;1.88;0.80;;;;;;;17.92;94.36;68758.16;4995944;28;20054;-78
2022/07/11 10:31:21;;;;;;;2.40;0.70;;;;;;;;;;5001915;28;20044;-80
2022/07/11 10:34:06;;;;;;;1.20;0.75;;;;;;;18.00;94.04;68769.41;4970028;28;20041;-77
2022/07/11 10:36:34;;;;;;;1.20;0.63;;;;;;;18.10;93.84;68778.16;5000001;28;20038;-78
2022/07/11 10:39:21;;;;;;;1.20;0.70;;;;;;;18.16;93.60;68787.69;4998042;28;20049;-78
2022/07/11 10:41:47;;;;;;;1.75;0.50;;;;;;;18.16;92.85;68784.41;5001596;28;20495;-79
2022/07/11 10:44:12;;;;;;;1.33;0.70;;;;;;;18.22;93.67;68793.97;5005066;28;20061;-78
2022/07/11 10:46:38;;;;;;;1.25;0.80;;;;;;;18.19;91.84;68791.09;4984240;28;20250;-79
2022/07/11 10:49:15;;;;;;;0.73;0.57;;;;;;;18.31;92.64;68803.66;4978555;28;20046;-80
2022/07/11 10:51:40;;;;;;;1.77;0.70;;;;;;;18.29;92.31;68801.38;4994860;28;20042;-79
2022/07/11 10:54:26;;;;;;;1.05;0.60;;;;;;;18.49;92.44;68819.38;5008465;28;20048;-78
2022/07/11 10:57:26;;;;;;;2.42;0.75;;;;;;;18.62;91.61;68838.50;5010065;28;20036;-80
2022/07/11 10:59:55;;;;;;;0.90;0.70;;;;;;;18.67;91.16;68844.19;5039165;28;20451;-78
2022/07/11 11:02:20;;;;;;;2.03;0.88;;;;;;;18.61;90.85;68837.91;5053548;28;20041;-79
2022/07/11 11:04:46;;;;;;;1.55;0.88;;;;;;;;;;5058143;28;20569;-79
2022/07/11 11:07:37;;;;;;;2.53;0.88;;;;;;;18.62;91.57;68836.38;5059082;28;20134;-80
2022/07/11 11:10:18;;;;;;;1.63;0.77;;;;;;;18.65;90.70;68841.91;5044440;28;20036;-79
2022/07/11 11:13:11;;;;;;;1.10;0.60;;;;;;;18.91;91.23;68868.38;5059613;28;20048;-78
2022/07/11 11:15:40;;;;;;;2.13;0.70;;;;;;;;;;5044481;28;20048;-78
2022/07/11 11:18:24;;;;;;;0.90;0.60;;;;;;;19.02;88.76;68883.63;5046539;28;20059;-78
2022/07/11 11:20:59;;;;;;;0.80;0.50;;;;;;;18.98;88.72;68879.03;5039025;28;20057;-76
2022/07/11 11:23:26;;;;;;;1.10;0.60;;;;;;;18.99;88.83;68879.63;5044168;28;20040;-78
2022/07/11 11:25:52;;;;;;;2.15;0.75;;;;;;;19.02;88.83;68883.03;5059931;28;20033;-80
2022/07/11 11:28:21;;;;;;;4.20;0.65;;;;;;;18.96;88.50;68882.19;5056937;28;20048;-78
2022/07/11 11:30:54;;;;;;;1.38;0.50;;;;;;;19.01;89.06;68882.47;5060839;28;20044;-76
2022/07/11 11:33:20;;;;;;;1.23;0.60;;;;;;;18.92;88.09;68869.50;5062300;28;20049;-77
2022/07/11 11:35:45;;;;;;;1.13;0.70;;;;;;;18.97;89.43;68877.91;5058733;28;20068;-77
2022/07/11 11:38:11;;;;;;;1.05;0.60;;;;;;;19.07;89.28;68886.63;5059474;28;20040;-78
2022/07/11 11:40:49;;;;;;;0.90;0.60;;;;;;;19.00;88.53;68878.63;5056741;28;20060;-80
2022/07/11 11:43:21;;;;;;;0.98;0.50;;;;;;;19.01;88.87;68881.91;5061696;28;20120;-77
2022/07/11 11:45:52;;;;;;;1.17;0.75;;;;;;;18.99;89.12;68876.91;5010205;28;20620;-79
2022/07/11 11:48:26;;;;;;;1.55;0.70;;;;;;;;;;5057336;28;20043;-77
2022/07/11 11:50:51;;;;;;;1.33;0.60;;;;;;;18.97;88.23;68877.34;5052666;28;20563;-78
2022/07/11 11:53:17;;;;;;;1.00;0.50;;;;;;;18.92;87.83;68872.75;5059195;28;20040;-80
2022/07/11 11:55:42;;;;;;;1.33;0.50;;;;;;;19.02;88.65;68883.03;5056988;28;20056;-78
2022/07/11 11:58:08;;;;;;;1.08;0.63;;;;;;;19.19;88.20;68896.50;5059209;28;20044;-79
2022/07/11 12:00:33;;;;;;;1.38;0.73;;;;;;;19.22;86.44;68902.63;5057844;28;20028;-82
2022/07/11 12:02:58;;;;;;;0.98;0.40;;;;;;;19.25;86.74;68909.34;5041275;28;20044;-79
2022/07/11 12:05:24;;;;;;;2.33;0.80;;;;;;;19.38;87.91;68923.59;5058219;28;20040;-79
2022/07/11 12:07:49;;;;;;;1.20;0.50;;;;;;;19.45;86.15;68931.63;5065088;28;20033;-79